Time;durP1;ratioP1;P1;durP2;ratioP2;P2;SDS_P1;SDS_P2;PMS_P1;PMS_P2;Temp;Humidity;BMP_temperature;BMP_pressure;BME280_temperature;BME280_humidity;BME280_pressure;Samples;Min_cycle;Max_cycle;Signal;HPM_P1;HPM_P2
2023/09/06 00:00:40;;;;;;;;;;;;;;;;;;4975783;28;19914;-89
2023/09/06 00:03:06;;;;;;;;;;;;;;;;;;4993872;28;20027;-89
2023/09/06 00:05:32;;;;;;;;;;;;;;;;;;4970649;28;20405;-89
2023/09/06 00:07:58;;;;;;;;;;;;;;;;;;4977683;28;19922;-88
2023/09/06 00:10:24;;;;;;;;;;;;;;;;;;4977306;28;20012;-89
2023/09/06 00:12:50;;;;;;;;;;;;;;;;;;4974214;28;20429;-88
2023/09/06 00:15:18;;;;;;;;;;;;;;;;;;4976615;28;20047;-88
2023/09/06 00:17:44;;;;;;;;;;;;;;;;;;4985756;28;20481;-89
2023/09/06 00:20:24;;;;;;;;;;;;;;;;;;4977910;28;20044;-88
2023/09/06 00:22:50;;;;;;;;;;;;;;;;;;4973413;28;19925;-88
2023/09/06 00:25:16;;;;;;;;;;;;;;;;;;4977548;28;19922;-88
2023/09/06 00:27:42;;;;;;;;;;;;;;;;;;4974486;28;19925;-88
2023/09/06 00:30:08;;;;;;;;;;;;;;;;;;4979129;28;19925;-89
2023/09/06 00:32:33;;;;;;;;;;;;;;;;;;4971048;28;20009;-88
2023/09/06 00:34:59;;;;;;;;;;;;;;;;;;4970348;28;19914;-89
2023/09/06 00:37:29;;;;;;;;;;;;;;;;;;4973813;28;19918;-88
2023/09/06 00:39:55;;;;;;;;;;;;;;;;;;4978064;28;20412;-88
2023/09/06 00:42:24;;;;;;;;;;;;;;;;;;4993534;28;19918;-89
2023/09/06 00:44:50;;;;;;;;;;;;;;;;;;4977998;28;19928;-89
2023/09/06 00:47:16;;;;;;;;;;;;;;;;;;4973767;28;20007;-88
2023/09/06 00:49:44;;;;;;;;;;;;;;;;;;4974441;28;20309;-89
2023/09/06 00:52:10;;;;;;;;;;;;;;;;;;4973699;28;20278;-89
2023/09/06 00:54:39;;;;;;;;;;;;;;;;;;4977284;28;19957;-89
2023/09/06 00:57:05;;;;;;;;;;;;;;;;;;4977564;28;19925;-88
2023/09/06 00:59:31;;;;;;;;;;;;;;;;;;4976174;28;19990;-89
2023/09/06 01:01:57;;;;;;;;;;;;;;;;;;4975910;28;20009;-89
2023/09/06 01:04:25;;;;;;;;;;;;;;;;;;4971507;28;19928;-89
2023/09/06 01:06:55;;;;;;;;;;;;;;;;;;4975628;28;19978;-88
2023/09/06 01:09:22;;;;;;;;;;;;;;;;;;4972304;28;20392;-89
2023/09/06 01:11:48;;;;;;;;;;;;;;;;;;4972899;28;19964;-88
2023/09/06 01:14:13;;;;;;;;;;;;;;;;;;4974446;28;19961;-89
2023/09/06 01:16:40;;;;;;;;;;;;;;;;;;4968363;28;20017;-89
2023/09/06 01:19:05;;;;;;;;;;;;;;;;;;4979107;28;19937;-90
2023/09/06 01:21:31;;;;;;;;;;;;;;;;;;4989131;28;19977;-89
2023/09/06 01:23:57;;;;;;;;;;;;;;;;;;4968986;28;19968;-89
2023/09/06 01:26:23;;;;;;;;;;;;;;;;;;4975963;28;20003;-87
2023/09/06 01:28:49;;;;;;;;;;;;;;;;;;4974161;28;19925;-88
2023/09/06 01:31:15;;;;;;;;;;;;;;;;;;4968165;28;19921;-87
2023/09/06 01:33:41;;;;;;;;;;;;;;;;;;4973101;28;20020;-88
2023/09/06 01:36:07;;;;;;;;;;;;;;;;;;4971747;28;20025;-88
2023/09/06 01:38:33;;;;;;;;;;;;;;;;;;4976132;28;19925;-89
2023/09/06 01:41:02;;;;;;;;;;;;;;;;;;4970467;28;19914;-87
2023/09/06 01:43:28;;;;;;;;;;;;;;;;;;4975985;28;19922;-88
2023/09/06 01:45:55;;;;;;;;;;;;;;;;;;4976897;28;19941;-88
2023/09/06 01:48:20;;;;;;;;;;;;;;;;;;4979295;28;19914;-87
2023/09/06 01:50:46;;;;;;;;;;;;;;;;;;4994385;28;19921;-87
2023/09/06 01:53:13;;;;;;;;;;;;;;;;;;4970896;28;19937;-87
2023/09/06 01:55:39;;;;;;;;;;;;;;;;;;4964748;28;20281;-87
2023/09/06 01:58:05;;;;;;;;;;;;;;;;;;4988636;28;19975;-90
2023/09/06 02:00:32;;;;;;;;;;;;;;;;;;4965228;28;19951;-87
2023/09/06 02:02:58;;;;;;;;;;;;;;;;;;4972459;28;19928;-87
2023/09/06 02:05:24;;;;;;;;;;;;;;;;;;4987293;28;20553;-87
2023/09/06 02:07:53;;;;;;;;;;;;;;;;;;4974113;28;19917;-87
2023/09/06 02:10:19;;;;;;;;;;;;;;;;;;4970000;28;19921;-88
2023/09/06 02:12:48;;;;;;;;;;;;;;;;;;4994134;28;20630;-87
2023/09/06 02:15:14;;;;;;;;;;;;;;;;;;4970315;28;19925;-89
2023/09/06 02:17:42;;;;;;;;;;;;;;;;;;4966347;28;19925;-88
2023/09/06 02:20:27;;;;;;;;;;;;;;;;;;4981872;28;20423;-89
2023/09/06 02:23:00;;;;;;;;;;;;;;;;;;4971374;28;19961;-89
2023/09/06 02:25:26;;;;;;;;;;;;;;;;;;4973774;28;19914;-88
2023/09/06 02:27:52;;;;;;;;;;;;;;;;;;4973119;28;20374;-88
2023/09/06 02:30:19;;;;;;;;;;;;;;;;;;4972483;28;19917;-88
2023/09/06 02:32:47;;;;;;;;;;;;;;;;;;4964773;28;19919;-89
2023/09/06 02:35:13;;;;;;;;;;;;;;;;;;4971691;28;19914;-90
2023/09/06 02:37:39;;;;;;;;;;;;;;;;;;4970241;28;20289;-93
2023/09/06 02:40:11;;;;;;;;;;;;;;;;;;4976532;28;19960;-93
2023/09/06 02:42:38;;;;;;;;;;;;;;;;;;4974914;28;19968;-92
2023/09/06 02:45:05;;;;;;;;;;;;;;;;;;4982497;28;20353;-92
2023/09/06 02:47:34;;;;;;;;;;;;;;;;;;4974240;28;19950;-92
2023/09/06 02:50:05;;;;;;;;;;;;;;;;;;4971268;28;19925;-92
2023/09/06 02:52:35;;;;;;;;;;;;;;;;;;4972863;28;19921;-93
2023/09/06 02:55:05;;;;;;;;;;;;;;;;;;4970843;28;19936;-93
2023/09/06 02:57:30;;;;;;;;;;;;;;;;;;4973493;28;19930;-94
2023/09/06 02:59:56;;;;;;;;;;;;;;;;;;4979318;28;20440;-92
2023/09/06 03:02:22;;;;;;;;;;;;;;;;;;4974873;28;19967;-93
2023/09/06 03:04:51;;;;;;;;;;;;;;;;;;4973789;28;19998;-91
2023/09/06 03:07:19;;;;;;;;;;;;;;;;;;4967312;28;19940;-93
2023/09/06 03:09:50;;;;;;;;;;;;;;;;;;4968985;28;19918;-93
2023/09/06 03:12:17;;;;;;;;;;;;;;;;;;4970401;28;19914;-93
2023/09/06 03:14:44;;;;;;;;;;;;;;;;;;4972572;28;19922;-94
2023/09/06 03:17:10;;;;;;;;;;;;;;;;;;4980160;28;20433;-94
2023/09/06 03:19:40;;;;;;;;;;;;;;;;;;4980607;28;19918;-92
2023/09/06 03:22:06;;;;;;;;;;;;;;;;;;4978195;28;20424;-93
2023/09/06 03:24:33;;;;;;;;;;;;;;;;;;4978853;28;19922;-92
2023/09/06 03:26:59;;;;;;;;;;;;;;;;;;4978744;28;19963;-89
2023/09/06 03:29:27;;;;;;;;;;;;;;;;;;4973822;28;20340;-89
2023/09/06 03:31:53;;;;;;;;;;;;;;;;;;4967990;28;20008;-89
2023/09/06 03:34:19;;;;;;;;;;;;;;;;;;4973967;28;20378;-89
2023/09/06 03:36:55;;;;;;;;;;;;;;;;;;4973062;28;19914;-88
2023/09/06 03:39:20;;;;;;;;;;;;;;;;;;4990261;28;19918;-89
2023/09/06 03:41:46;;;;;;;;;;;;;;;;;;4979756;28;20017;-89
2023/09/06 03:44:12;;;;;;;;;;;;;;;;;;4981763;28;19917;-89
2023/09/06 03:46:39;;;;;;;;;;;;;;;;;;4970685;28;19953;-89
2023/09/06 03:49:05;;;;;;;;;;;;;;;;;;4971890;28;19913;-89
2023/09/06 03:51:31;;;;;;;;;;;;;;;;;;4970826;28;20672;-89
2023/09/06 03:53:59;;;;;;;;;;;;;;;;;;4976170;28;20012;-89
2023/09/06 03:56:24;;;;;;;;;;;;;;;;;;4973215;28;19960;-89
2023/09/06 03:58:53;;;;;;;;;;;;;;;;;;4966825;28;19922;-89
2023/09/06 04:01:19;;;;;;;;;;;;;;;;;;4972867;28;19922;-89
2023/09/06 04:03:47;;;;;;;;;;;;;;;;;;4969784;28;20300;-89
2023/09/06 04:06:16;;;;;;;;;;;;;;;;;;4976229;28;19917;-88
2023/09/06 04:08:43;;;;;;;;;;;;;;;;;;4972309;28;20021;-89
2023/09/06 04:11:12;;;;;;;;;;;;;;;;;;4975504;28;19917;-89
2023/09/06 04:13:39;;;;;;;;;;;;;;;;;;4979550;28;20361;-89
2023/09/06 04:16:05;;;;;;;;;;;;;;;;;;4979748;28;19914;-89
2023/09/06 04:18:31;;;;;;;;;;;;;;;;;;4977372;28;19914;-88
2023/09/06 04:20:59;;;;;;;;;;;;;;;;;;4976954;28;19922;-89
2023/09/06 04:23:25;;;;;;;;;;;;;;;;;;4974383;28;19921;-89
2023/09/06 04:25:51;;;;;;;;;;;;;;;;;;4964181;28;19914;-87
2023/09/06 04:28:20;;;;;;;;;;;;;;;;;;4972685;28;19924;-89
2023/09/06 04:30:46;;;;;;;;;;;;;;;;;;4974723;28;20370;-89
2023/09/06 04:33:14;;;;;;;;;;;;;;;;;;4974295;28;19914;-89
2023/09/06 04:35:43;;;;;;;;;;;;;;;;;;4968667;28;19922;-88
2023/09/06 04:38:09;;;;;;;;;;;;;;;;;;4970496;28;19929;-88
2023/09/06 04:40:35;;;;;;;;;;;;;;;;;;4972253;28;19922;-88
2023/09/06 04:43:01;;;;;;;;;;;;;;;;;;4976644;28;19918;-88
2023/09/06 04:45:27;;;;;;;;;;;;;;;;;;4980296;28;19921;-89
2023/09/06 04:47:53;;;;;;;;;;;;;;;;;;4974342;28;19917;-89
2023/09/06 04:50:25;;;;;;;;;;;;;;;;;;4975621;28;19918;-88
2023/09/06 04:52:52;;;;;;;;;;;;;;;;;;4978937;28;19914;-87
2023/09/06 04:55:19;;;;;;;;;;;;;;;;;;4971792;28;19926;-87
2023/09/06 04:57:45;;;;;;;;;;;;;;;;;;4972027;28;20008;-87
2023/09/06 05:00:17;;;;;;;;;;;;;;;;;;4969776;28;19918;-88
2023/09/06 05:02:43;;;;;;;;;;;;;;;;;;4977442;28;19922;-87
2023/09/06 05:05:08;;;;;;;;;;;;;;;;;;4985003;28;20008;-88
2023/09/06 05:07:35;;;;;;;;;;;;;;;;;;4976446;28;19914;-87
2023/09/06 05:10:03;;;;;;;;;;;;;;;;;;4969464;28;20100;-87
2023/09/06 05:12:29;;;;;;;;;;;;;;;;;;4987520;28;19917;-87
2023/09/06 05:14:55;;;;;;;;;;;;;;;;;;4985952;28;20381;-87
2023/09/06 05:17:21;;;;;;;;;;;;;;;;;;4972654;28;20023;-87
2023/09/06 05:19:47;;;;;;;;;;;;;;;;;;4972348;28;20023;-88
2023/09/06 05:22:13;;;;;;;;;;;;;;;;;;4973471;28;19995;-87
2023/09/06 05:24:39;;;;;;;;;;;;;;;;;;4964189;28;19976;-87
2023/09/06 05:27:05;;;;;;;;;;;;;;;;;;4972841;28;19914;-87
2023/09/06 05:29:32;;;;;;;;;;;;;;;;;;4973183;28;19918;-87
2023/09/06 05:31:58;;;;;;;;;;;;;;;;;;4969534;28;19914;-87
2023/09/06 05:34:24;;;;;;;;;;;;;;;;;;4972858;28;19928;-88
2023/09/06 05:36:51;;;;;;;;;;;;;;;;;;4971376;28;19941;-88
2023/09/06 05:39:20;;;;;;;;;;;;;;;;;;4982352;28;19925;-88
2023/09/06 05:41:46;;;;;;;;;;;;;;;;;;4976312;28;20353;-88
2023/09/06 05:44:12;;;;;;;;;;;;;;;;;;4972671;28;19928;-88
2023/09/06 05:46:38;;;;;;;;;;;;;;;;;;4990200;28;19918;-89
2023/09/06 05:49:05;;;;;;;;;;;;;;;;;;4975836;28;20419;-89
2023/09/06 05:51:30;;;;;;;;;;;;;;;;;;4977796;28;19925;-89
2023/09/06 05:53:58;;;;;;;;;;;;;;;;;;4977743;28;19915;-89
2023/09/06 05:56:24;;;;;;;;;;;;;;;;;;4974031;28;19957;-90
2023/09/06 05:58:50;;;;;;;;;;;;;;;;;;4970538;28;19953;-89
2023/09/06 06:01:17;;;;;;;;;;;;;;;;;;4963694;28;19969;-89
2023/09/06 06:03:43;;;;;;;;;;;;;;;;;;4983699;28;19927;-89
2023/09/06 06:06:16;;;;;;;;;;;;;;;;;;4972652;28;19914;-88
2023/09/06 06:08:42;;;;;;;;;;;;;;;;;;4992368;28;19953;-88
2023/09/06 06:11:11;;;;;;;;;;;;;;;;;;4973053;28;19968;-88
2023/09/06 06:13:37;;;;;;;;;;;;;;;;;;4977135;28;19920;-89
2023/09/06 06:16:05;;;;;;;;;;;;;;;;;;4989231;28;20396;-88
2023/09/06 06:18:31;;;;;;;;;;;;;;;;;;4975048;28;19948;-87
2023/09/06 06:20:58;;;;;;;;;;;;;;;;;;4971965;28;19945;-87
2023/09/06 06:23:24;;;;;;;;;;;;;;;;;;4970233;28;20522;-89
2023/09/06 06:25:50;;;;;;;;;;;;;;;;;;4977162;28;19918;-87
2023/09/06 06:28:24;;;;;;;;;;;;;;;;;;4973266;28;20210;-88
2023/09/06 06:30:50;;;;;;;;;;;;;;;;;;4972758;28;19993;-87
2023/09/06 06:33:16;;;;;;;;;;;;;;;;;;4968678;28;19913;-88
2023/09/06 06:35:41;;;;;;;;;;;;;;;;;;4966237;28;19914;-88
2023/09/06 06:38:07;;;;;;;;;;;;;;;;;;4964814;28;19915;-88
2023/09/06 06:40:33;;;;;;;;;;;;;;;;;;4971758;28;19929;-88
2023/09/06 06:43:00;;;;;;;;;;;;;;;;;;4971330;28;20004;-89
2023/09/06 06:45:26;;;;;;;;;;;;;;;;;;4970710;28;20797;-88
2023/09/06 06:47:52;;;;;;;;;;;;;;;;;;4979469;28;19924;-87
2023/09/06 06:50:19;;;;;;;;;;;;;;;;;;4975381;28;19925;-87
2023/09/06 06:52:46;;;;;;;;;;;;;;;;;;4973292;28;19921;-88
2023/09/06 06:55:15;;;;;;;;;;;;;;;;;;4977475;28;19960;-90
2023/09/06 06:57:42;;;;;;;;;;;;;;;;;;4967440;28;20271;-89
2023/09/06 07:00:11;;;;;;;;;;;;;;;;;;4973338;28;19921;-90
2023/09/06 07:02:37;;;;;;;;;;;;;;;;;;4970411;28;20302;-89
2023/09/06 07:05:03;;;;;;;;;;;;;;;;;;4977213;28;19953;-90
2023/09/06 07:07:29;;;;;;;;;;;;;;;;;;4969017;28;20401;-89
2023/09/06 07:09:55;;;;;;;;;;;;;;;;;;4976167;28;19909;-89
2023/09/06 07:12:21;;;;;;;;;;;;;;;;;;4978309;28;20400;-90
2023/09/06 07:14:47;;;;;;;;;;;;;;;;;;4976397;28;19957;-89
2023/09/06 07:17:13;;;;;;;;;;;;;;;;;;4973706;28;20012;-89
2023/09/06 07:19:38;;;;;;;;;;;;;;;;;;4969702;28;20390;-89
2023/09/06 07:22:04;;;;;;;;;;;;;;;;;;4977704;28;19917;-89
2023/09/06 07:24:30;;;;;;;;;;;;;;;;;;4972214;28;19934;-89
2023/09/06 07:26:56;;;;;;;;;;;;;;;;;;4979369;28;19924;-89
2023/09/06 07:29:22;;;;;;;;;;;;;;;;;;4978197;28;20388;-89
2023/09/06 07:31:49;;;;;;;;;;;;;;;;;;4973798;28;19918;-89
2023/09/06 07:34:15;;;;;;;;;;;;;;;;;;4972692;28;19929;-89
2023/09/06 07:36:40;;;;;;;;;;;;;;;;;;4971516;28;19914;-90
2023/09/06 07:39:08;;;;;;;;;;;;;;;;;;4971762;28;20529;-89
2023/09/06 07:41:34;;;;;;;;;;;;;;;;;;4968323;28;19942;-90
2023/09/06 07:44:00;;;;;;;;;;;;;;;;;;4976714;28;19940;-90
2023/09/06 07:46:29;;;;;;;;;;;;;;;;;;4970958;28;20381;-90
2023/09/06 07:48:55;;;;;;;;;;;;;;;;;;4967693;28;20625;-89
2023/09/06 07:51:21;;;;;;;;;;;;;;;;;;4974562;28;20099;-90
2023/09/06 07:53:47;;;;;;;;;;;;;;;;;;4978627;28;20008;-89
2023/09/06 07:56:13;;;;;;;;;;;;;;;;;;4972604;28;21396;-90
2023/09/06 07:58:39;;;;;;;;;;;;;;;;;;4973183;28;19925;-90
2023/09/06 08:01:05;;;;;;;;;;;;;;;;;;4977768;28;19917;-89
2023/09/06 08:03:31;;;;;;;;;;;;;;;;;;4973787;28;19918;-89
2023/09/06 08:05:57;;;;;;;;;;;;;;;;;;4981225;28;19926;-90
2023/09/06 08:08:23;;;;;;;;;;;;;;;;;;4990637;28;19932;-90
2023/09/06 08:10:48;;;;;;;;;;;;;;;;;;4973959;28;19922;-90
2023/09/06 08:13:15;;;;;;;;;;;;;;;;;;4990122;28;20002;-90
2023/09/06 08:15:47;;;;;;;;;;;;;;;;;;4986145;28;20428;-89
2023/09/06 08:18:13;;;;;;;;;;;;;;;;;;4978224;28;19941;-89
2023/09/06 08:20:39;;;;;;;;;;;;;;;;;;4975694;28;19922;-89
2023/09/06 08:23:05;;;;;;;;;;;;;;;;;;4976977;28;19917;-88
2023/09/06 08:25:31;;;;;;;;;;;;;;;;;;4978124;28;19961;-88
2023/09/06 08:27:57;;;;;;;;;;;;;;;;;;4977811;28;19924;-88
2023/09/06 08:30:23;;;;;;;;;;;;;;;;;;4978357;28;19917;-88
2023/09/06 08:32:50;;;;;;;;;;;;;;;;;;4974985;28;19967;-87
2023/09/06 08:35:22;;;;;;;;;;;;;;;;;;4984764;28;19932;-89
2023/09/06 08:37:49;;;;;;;;;;;;;;;;;;4963108;28;19992;-89
2023/09/06 08:40:16;;;;;;;;;;;;;;;;;;4972118;28;19914;-88
2023/09/06 08:42:43;;;;;;;;;;;;;;;;;;4963855;28;19976;-89
2023/09/06 08:45:09;;;;;;;;;;;;;;;;;;4967386;28;20484;-90
2023/09/06 08:47:35;;;;;;;;;;;;;;;;;;4968412;28;19956;-88
2023/09/06 08:50:01;;;;;;;;;;;;;;;;;;4992278;28;20275;-88
2023/09/06 08:52:31;;;;;;;;;;;;;;;;;;4975015;28;20047;-88
2023/09/06 08:54:57;;;;;;;;;;;;;;;;;;4961121;28;19918;-89
2023/09/06 08:57:22;;;;;;;;;;;;;;;;;;4980578;28;19924;-87
2023/09/06 08:59:48;;;;;;;;;;;;;;;;;;4970672;28;20273;-90
2023/09/06 09:02:15;;;;;;;;;;;;;;;;;;4973734;28;19917;-90
2023/09/06 09:04:42;;;;;;;;;;;;;;;;;;4969209;28;20417;-88
2023/09/06 09:07:08;;;;;;;;;;;;;;;;;;4967727;28;19914;-88
2023/09/06 09:09:34;;;;;;;;;;;;;;;;;;4968864;28;19926;-88
2023/09/06 09:11:59;;;;;;;;;;;;;;;;;;4975725;28;20752;-88
2023/09/06 09:14:29;;;;;;;;;;;;;;;;;;4964007;28;20020;-88
2023/09/06 09:16:55;;;;;;;;;;;;;;;;;;5009927;28;20373;-90
2023/09/06 09:19:21;;;;;;;;;;;;;;;;;;5007128;28;19924;-91
2023/09/06 09:21:47;;;;;;;;;;;;;;;;;;5005299;28;20487;-90
2023/09/06 09:24:13;;;;;;;;;;;;;;;;;;4990654;28;19921;-90
2023/09/06 09:26:42;;;;;;;;;;;;;;;;;;4994877;28;19924;-90
2023/09/06 09:29:08;;;;;;;;;;;;;;;;;;5006654;28;20000;-91
2023/09/06 09:31:34;;;;;;;;;;;;;;;;;;4996907;28;20012;-91
2023/09/06 09:34:00;;;;;;;;;;;;;;;;;;5000291;28;19917;-91
2023/09/06 09:36:28;;;;;;;;;;;;;;;;;;5001435;28;19910;-87
2023/09/06 09:38:54;;;;;;;;;;;;;;;;;;4990716;28;20811;-87
2023/09/06 09:41:20;;;;;;;;;;;;;;;;;;4982758;28;19986;-88
2023/09/06 09:43:46;;;;;;;;;;;;;;;;;;4987658;28;19925;-88
2023/09/06 09:46:12;;;;;;;;;;;;;;;;;;4996952;28;19938;-87
2023/09/06 09:48:47;;;;;;;;;;;;;;;;;;4997465;28;19918;-88
2023/09/06 09:51:16;;;;;;;;;;;;;;;;;;5000855;28;20000;-88
2023/09/06 09:53:57;;;;;;;;;;;;;;;;;;5000606;28;19914;-87
2023/09/06 09:56:24;;;;;;;;;;;;;;;;;;5000274;28;19917;-89
2023/09/06 09:58:51;;;;;;;;;;;;;;;;;;5000230;28;19920;-87
2023/09/06 10:01:17;;;;;;;;;;;;;;;;;;4999822;28;19913;-87
2023/09/06 10:03:43;;;;;;;;;;;;;;;;;;4995389;28;20258;-89
2023/09/06 10:06:10;;;;;;;;;;;;;;;;;;5006033;28;19936;-88
2023/09/06 10:08:36;;;;;;;;;;;;;;;;;;5000429;28;19911;-91
2023/09/06 10:11:03;;;;;;;;;;;;;;;;;;5008929;28;20021;-89
2023/09/06 10:13:29;;;;;;;;;;;;;;;;;;5005613;28;20369;-90
2023/09/06 10:15:56;;;;;;;;;;;;;;;;;;4987485;28;19922;-88
2023/09/06 10:18:23;;;;;;;;;;;;;;;;;;4974438;28;20871;-87
2023/09/06 10:20:54;;;;;;;;;;;;;;;;;;4976887;28;19918;-87
2023/09/06 10:23:20;;;;;;;;;;;;;;;;;;4974115;28;19914;-88
2023/09/06 10:26:05;;;;;;;;;;;;;;;;;;4983790;28;19914;-91
2023/09/06 10:28:32;;;;;;;;;;;;;;;;;;4984671;28;19972;-93
2023/09/06 10:31:07;;;;;;;;;;;;;;;;;;4981345;28;19914;-92
2023/09/06 10:33:36;;;;;;;;;;;;;;;;;;4979927;28;19914;-91
2023/09/06 10:36:08;;;;;;;;;;;;;;;;;;4978651;28;19922;-92
2023/09/06 10:38:35;;;;;;;;;;;;;;;;;;4974477;28;19976;-91
2023/09/06 10:41:01;;;;;;;;;;;;;;;;;;4980376;28;19925;-94
2023/09/06 10:43:28;;;;;;;;;;;;;;;;;;4979758;28;19914;-90
2023/09/06 10:46:00;;;;;;;;;;;;;;;;;;4979645;28;20351;-89
2023/09/06 10:48:26;;;;;;;;;;;;;;;;;;4967087;28;20289;-90
2023/09/06 10:50:52;;;;;;;;;;;;;;;;;;4966191;28;19925;-89
2023/09/06 10:53:19;;;;;;;;;;;;;;;;;;4976148;28;19921;-90
2023/09/06 10:55:46;;;;;;;;;;;;;;;;;;4969995;28;19913;-88
2023/09/06 10:58:12;;;;;;;;;;;;;;;;;;4974397;28;20081;-89
2023/09/06 11:00:41;;;;;;;;;;;;;;;;;;4975116;28;19918;-90
2023/09/06 11:03:06;;;;;;;;;;;;;;;;;;4975549;28;19928;-89
2023/09/06 11:05:35;;;;;;;;;;;;;;;;;;4975234;28;20317;-89
2023/09/06 11:08:00;;;;;;;;;;;;;;;;;;4971122;28;19914;-90
2023/09/06 11:10:27;;;;;;;;;;;;;;;;;;4978650;28;20015;-89
2023/09/06 11:12:53;;;;;;;;;;;;;;;;;;4967382;28;19981;-91
2023/09/06 11:15:19;;;;;;;;;;;;;;;;;;4970864;28;19930;-91
2023/09/06 11:17:46;;;;;;;;;;;;;;;;;;4980913;28;20000;-90
2023/09/06 11:20:12;;;;;;;;;;;;;;;;;;4977773;28;20350;-89
2023/09/06 11:22:38;;;;;;;;;;;;;;;;;;4980453;28;20417;-89
2023/09/06 11:25:04;;;;;;;;;;;;;;;;;;4980674;28;19922;-90
2023/09/06 11:27:33;;;;;;;;;;;;;;;;;;4978803;28;19918;-89
2023/09/06 11:30:06;;;;;;;;;;;;;;;;;;4971757;28;19953;-90
2023/09/06 11:32:35;;;;;;;;;;;;;;;;;;4972307;28;19914;-90
2023/09/06 11:35:03;;;;;;;;;;;;;;;;;;4977621;28;19958;-90
2023/09/06 11:37:30;;;;;;;;;;;;;;;;;;4979586;28;20365;-90
2023/09/06 11:39:57;;;;;;;;;;;;;;;;;;4976848;28;19960;-91
2023/09/06 11:42:24;;;;;;;;;;;;;;;;;;4994695;28;20184;-90
2023/09/06 11:44:53;;;;;;;;;;;;;;;;;;4977582;28;20016;-90
2023/09/06 11:47:19;;;;;;;;;;;;;;;;;;4984750;28;20415;-90
2023/09/06 11:49:45;;;;;;;;;;;;;;;;;;4981806;28;19921;-90
2023/09/06 11:52:12;;;;;;;;;;;;;;;;;;4991687;28;19921;-90
2023/09/06 11:54:39;;;;;;;;;;;;;;;;;;4987694;28;19921;-90
2023/09/06 11:57:15;;;;;;;;;;;;;;;;;;4982570;28;19918;-93
2023/09/06 11:59:43;;;;;;;;;;;;;;;;;;4988577;28;20495;-93
2023/09/06 12:02:10;;;;;;;;;;;;;;;;;;4982291;28;19934;-93
2023/09/06 12:04:36;;;;;;;;;;;;;;;;;;4985198;28;19950;-93
2023/09/06 12:07:07;;;;;;;;;;;;;;;;;;4985810;28;19917;-93
2023/09/06 12:09:43;;;;;;;;;;;;;;;;;;4983538;28;19918;-91
2023/09/06 12:12:09;;;;;;;;;;;;;;;;;;4986608;28;19924;-92
2023/09/06 12:14:36;;;;;;;;;;;;;;;;;;4982021;28;19948;-92
2023/09/06 12:17:05;;;;;;;;;;;;;;;;;;4994575;28;19933;-91
2023/09/06 12:19:31;;;;;;;;;;;;;;;;;;4983185;28;19914;-93
2023/09/06 12:21:57;;;;;;;;;;;;;;;;;;4983983;28;19914;-91
2023/09/06 12:24:24;;;;;;;;;;;;;;;;;;4985904;28;19926;-94
2023/09/06 12:26:50;;;;;;;;;;;;;;;;;;4988933;28;20460;-93
2023/09/06 12:29:16;;;;;;;;;;;;;;;;;;4988951;28;19921;-93
2023/09/06 12:31:43;;;;;;;;;;;;;;;;;;4988856;28;19918;-94
2023/09/06 12:34:08;;;;;;;;;;;;;;;;;;4985671;28;20439;-93
2023/09/06 12:36:34;;;;;;;;;;;;;;;;;;4980821;28;19914;-92
2023/09/06 12:39:00;;;;;;;;;;;;;;;;;;4970790;28;20180;-94
2023/09/06 12:41:26;;;;;;;;;;;;;;;;;;4978881;28;19922;-93
2023/09/06 12:43:52;;;;;;;;;;;;;;;;;;4975287;28;19925;-93
2023/09/06 12:46:21;;;;;;;;;;;;;;;;;;4979253;28;19944;-89
2023/09/06 12:48:47;;;;;;;;;;;;;;;;;;4971769;28;20421;-89
2023/09/06 12:51:13;;;;;;;;;;;;;;;;;;4971971;28;19917;-90
2023/09/06 12:53:39;;;;;;;;;;;;;;;;;;4965671;28;19944;-90
2023/09/06 12:56:07;;;;;;;;;;;;;;;;;;4992077;28;20297;-90
2023/09/06 12:58:33;;;;;;;;;;;;;;;;;;4991068;28;19940;-89
2023/09/06 13:00:59;;;;;;;;;;;;;;;;;;4977716;28;19913;-89
2023/09/06 13:03:24;;;;;;;;;;;;;;;;;;4979812;28;19924;-89
2023/09/06 13:05:51;;;;;;;;;;;;;;;;;;4979534;28;19920;-88
2023/09/06 13:08:17;;;;;;;;;;;;;;;;;;4978479;28;20362;-87
2023/09/06 13:10:43;;;;;;;;;;;;;;;;;;4978365;28;19914;-88
2023/09/06 13:13:09;;;;;;;;;;;;;;;;;;4977290;28;19948;-89
2023/09/06 13:15:34;;;;;;;;;;;;;;;;;;4986846;28;19962;-89
2023/09/06 13:18:00;;;;;;;;;;;;;;;;;;5002972;28;20352;-88
2023/09/06 13:20:26;;;;;;;;;;;;;;;;;;4993271;28;19914;-89
2023/09/06 13:22:53;;;;;;;;;;;;;;;;;;4991928;28;19913;-88
2023/09/06 13:25:19;;;;;;;;;;;;;;;;;;5007437;28;20431;-88
2023/09/06 13:27:46;;;;;;;;;;;;;;;;;;4999291;28;19913;-88
2023/09/06 13:30:12;;;;;;;;;;;;;;;;;;5019651;28;19914;-89
2023/09/06 13:32:38;;;;;;;;;;;;;;;;;;4998869;28;19939;-87
2023/09/06 13:35:05;;;;;;;;;;;;;;;;;;5001570;28;19924;-89
2023/09/06 13:37:32;;;;;;;;;;;;;;;;;;5000419;28;19937;-87
2023/09/06 13:39:58;;;;;;;;;;;;;;;;;;4989342;28;19925;-88
2023/09/06 13:42:24;;;;;;;;;;;;;;;;;;4995657;28;19921;-90
2023/09/06 13:44:50;;;;;;;;;;;;;;;;;;4998725;28;19984;-88
2023/09/06 13:47:17;;;;;;;;;;;;;;;;;;4992923;28;19913;-88
2023/09/06 13:49:43;;;;;;;;;;;;;;;;;;5001533;28;19973;-87
2023/09/06 13:52:09;;;;;;;;;;;;;;;;;;4991738;28;19953;-88
2023/09/06 13:54:35;;;;;;;;;;;;;;;;;;5021098;28;19921;-88
2023/09/06 13:57:01;;;;;;;;;;;;;;;;;;4997013;28;19923;-89
2023/09/06 13:59:28;;;;;;;;;;;;;;;;;;4995846;28;19964;-89
2023/09/06 14:01:54;;;;;;;;;;;;;;;;;;4994684;28;19917;-89
2023/09/06 14:04:19;;;;;;;;;;;;;;;;;;4993436;28;19921;-90
2023/09/06 14:06:45;;;;;;;;;;;;;;;;;;5014928;28;20064;-90
2023/09/06 14:09:11;;;;;;;;;;;;;;;;;;4994542;28;19920;-90
2023/09/06 14:11:37;;;;;;;;;;;;;;;;;;4995650;28;19914;-89
2023/09/06 14:14:04;;;;;;;;;;;;;;;;;;4994808;28;20331;-89
2023/09/06 14:16:36;;;;;;;;;;;;;;;;;;4991658;28;19933;-87
2023/09/06 14:19:03;;;;;;;;;;;;;;;;;;4980603;28;20389;-87
2023/09/06 14:21:30;;;;;;;;;;;;;;;;;;4991297;28;19956;-87
2023/09/06 14:23:56;;;;;;;;;;;;;;;;;;4983007;28;19922;-88
2023/09/06 14:26:22;;;;;;;;;;;;;;;;;;4977484;28;20630;-87
2023/09/06 14:28:48;;;;;;;;;;;;;;;;;;4972666;28;19925;-90
2023/09/06 14:31:14;;;;;;;;;;;;;;;;;;4978176;28;19941;-88
2023/09/06 14:33:40;;;;;;;;;;;;;;;;;;4976837;28;19922;-88
2023/09/06 14:36:06;;;;;;;;;;;;;;;;;;4987404;28;19922;-88
2023/09/06 14:38:33;;;;;;;;;;;;;;;;;;5002849;28;19918;-88
2023/09/06 14:40:59;;;;;;;;;;;;;;;;;;4979501;28;20000;-88
2023/09/06 14:43:24;;;;;;;;;;;;;;;;;;4993766;28;19921;-88
2023/09/06 14:45:51;;;;;;;;;;;;;;;;;;4976181;28;19922;-89
2023/09/06 14:48:17;;;;;;;;;;;;;;;;;;4976530;28;19910;-90
2023/09/06 14:50:43;;;;;;;;;;;;;;;;;;4980910;28;19994;-88
2023/09/06 14:53:09;;;;;;;;;;;;;;;;;;4975081;28;19956;-92
2023/09/06 14:55:35;;;;;;;;;;;;;;;;;;4987788;28;19918;-88
2023/09/06 14:58:01;;;;;;;;;;;;;;;;;;4976120;28;20049;-88
2023/09/06 15:00:27;;;;;;;;;;;;;;;;;;4980396;28;20384;-88
2023/09/06 15:02:53;;;;;;;;;;;;;;;;;;4978502;28;19960;-88
2023/09/06 15:05:21;;;;;;;;;;;;;;;;;;4990288;28;19918;-90
2023/09/06 15:07:47;;;;;;;;;;;;;;;;;;4976514;28;19961;-90
2023/09/06 15:10:14;;;;;;;;;;;;;;;;;;4995318;28;19971;-91
2023/09/06 15:12:40;;;;;;;;;;;;;;;;;;4975803;28;19922;-91
2023/09/06 15:15:06;;;;;;;;;;;;;;;;;;4975256;28;19941;-92
2023/09/06 15:17:32;;;;;;;;;;;;;;;;;;4988096;28;20361;-91
2023/09/06 15:19:58;;;;;;;;;;;;;;;;;;4980876;28;20396;-91
2023/09/06 15:22:24;;;;;;;;;;;;;;;;;;4977005;28;19918;-91
2023/09/06 15:24:50;;;;;;;;;;;;;;;;;;4991039;28;19929;-91
2023/09/06 15:27:16;;;;;;;;;;;;;;;;;;4982869;28;19924;-89
2023/09/06 15:29:44;;;;;;;;;;;;;;;;;;4974824;28;19918;-88
2023/09/06 15:32:10;;;;;;;;;;;;;;;;;;4979653;28;19913;-89
2023/09/06 15:34:39;;;;;;;;;;;;;;;;;;4996333;28;19996;-89
2023/09/06 15:37:06;;;;;;;;;;;;;;;;;;4976378;28;20594;-89
2023/09/06 15:39:32;;;;;;;;;;;;;;;;;;4980467;28;20008;-89
2023/09/06 15:41:58;;;;;;;;;;;;;;;;;;4971409;28;20737;-88
2023/09/06 15:44:24;;;;;;;;;;;;;;;;;;4970481;28;19918;-88
2023/09/06 15:46:55;;;;;;;;;;;;;;;;;;4974051;28;19915;-87
2023/09/06 15:49:22;;;;;;;;;;;;;;;;;;4976636;28;19929;-88
2023/09/06 15:51:48;;;;;;;;;;;;;;;;;;4970191;28;19918;-88
2023/09/06 15:54:13;;;;;;;;;;;;;;;;;;4966967;28;20472;-89
2023/09/06 15:56:42;;;;;;;;;;;;;;;;;;4969643;28;20044;-88
2023/09/06 15:59:08;;;;;;;;;;;;;;;;;;4989684;28;19914;-89
2023/09/06 16:01:34;;;;;;;;;;;;;;;;;;4966059;28;20349;-89
2023/09/06 16:04:00;;;;;;;;;;;;;;;;;;4988573;28;19930;-89
2023/09/06 16:06:27;;;;;;;;;;;;;;;;;;4976774;28;20157;-88
2023/09/06 16:08:53;;;;;;;;;;;;;;;;;;4970723;28;19937;-88
2023/09/06 16:11:19;;;;;;;;;;;;;;;;;;4971372;28;20478;-88
2023/09/06 16:13:45;;;;;;;;;;;;;;;;;;4970930;28;19915;-88
2023/09/06 16:16:11;;;;;;;;;;;;;;;;;;4972743;28;20228;-90
2023/09/06 16:18:37;;;;;;;;;;;;;;;;;;4988771;28;19922;-90
2023/09/06 16:21:04;;;;;;;;;;;;;;;;;;4996157;28;19921;-90
2023/09/06 16:23:30;;;;;;;;;;;;;;;;;;4995016;28;19921;-90
2023/09/06 16:25:56;;;;;;;;;;;;;;;;;;5014083;28;19917;-91
2023/09/06 16:28:22;;;;;;;;;;;;;;;;;;4996697;28;19924;-90
2023/09/06 16:30:48;;;;;;;;;;;;;;;;;;4996610;28;19917;-90
2023/09/06 16:33:14;;;;;;;;;;;;;;;;;;4991374;28;19913;-90
2023/09/06 16:35:40;;;;;;;;;;;;;;;;;;5000701;28;20043;-91
2023/09/06 16:38:06;;;;;;;;;;;;;;;;;;4996077;28;19949;-91
2023/09/06 16:40:32;;;;;;;;;;;;;;;;;;4997102;28;19918;-91
2023/09/06 16:42:58;;;;;;;;;;;;;;;;;;4997383;28;20012;-90